Aviation Digital Data Service (ADDS)

Output produced by TAFs form (0747 UTC 25 March 2017)
found at http://www.aviationweather.gov/adds/tafs/
 
METAR text: RJOR 250700Z 04012KT 9999 FEW050 BKN/// 09/M03 Q1018
Conditions at: RJOR (TOTTORI AIRPORT , JP) observed 0700 UTC 25 March 2017
Temperature: 9.0°C (48°F)
Dewpoint: -3.0°C (27°F) [RH = 43%]
Pressure (altimeter): 30.06 inches Hg (1018.0 mb)
Winds: from the NE (40 degrees) at 14 MPH (12 knots; 6.2 m/s)
Visibility: 6 or more miles (10+ km)
Ceiling: at least 12,000 feet AGL
Clouds: few clouds at 5000 feet AGL
Weather: no significant weather observed at this time